createdAt,value
2022-09-24T00:00:00.151Z,87.56
2022-09-24T00:02:28.731Z,88.92
2022-09-24T00:04:57.884Z,86.41
2022-09-24T00:07:26.451Z,84.90
2022-09-24T00:09:54.946Z,90.45
2022-09-24T00:12:23.473Z,86.14
2022-09-24T00:14:51.974Z,86.79
2022-09-24T00:17:21.860Z,87.58
2022-09-24T00:19:50.423Z,92.79
2022-09-24T00:22:18.924Z,87.04
2022-09-24T00:25:04.807Z,90.74
2022-09-24T00:27:33.355Z,89.74
2022-09-24T00:30:01.868Z,86.60
2022-09-24T00:32:31.750Z,85.23
2022-09-24T00:35:00.270Z,85.76
2022-09-24T00:37:29.146Z,85.30
2022-09-24T00:39:57.661Z,85.65
2022-09-24T00:42:26.181Z,84.77
2022-09-24T00:44:56.417Z,85.01
2022-09-24T00:47:34.748Z,84.54
2022-09-24T00:50:14.431Z,84.90
2022-09-24T00:52:46.643Z,84.36
2022-09-24T00:55:16.651Z,84.05
2022-09-24T00:57:46.294Z,96.35
2022-09-24T01:00:16.035Z,94.30
2022-09-24T01:02:48.542Z,91.42
2022-09-24T01:05:17.889Z,97.53
2022-09-24T01:07:48.750Z,93.38
2022-09-24T01:10:40.960Z,90.38
2022-09-24T01:13:22.382Z,88.49
2022-09-24T01:16:00.727Z,88.16
2022-09-24T01:18:38.276Z,87.75
2022-09-24T01:21:26.460Z,90.48
2022-09-24T01:24:28.251Z,87.73
2022-09-24T01:27:06.869Z,87.72
2022-09-24T01:30:01.663Z,86.67
2022-09-24T01:32:37.406Z,86.91
2022-09-24T01:35:14.003Z,85.97
2022-09-24T01:37:46.381Z,86.21
2022-09-24T01:40:16.120Z,91.70
2022-09-24T01:42:46.221Z,89.97
2022-09-24T01:45:17.456Z,89.99
2022-09-24T01:47:46.892Z,89.31
2022-09-24T01:50:18.293Z,100.00
2022-09-24T01:52:53.087Z,100.00
2022-09-24T01:55:26.477Z,100.00
2022-09-24T01:58:01.248Z,96.84
2022-09-24T02:00:31.371Z,93.55
2022-09-24T02:03:07.684Z,100.00
2022-09-24T02:05:41.050Z,100.00
2022-09-24T02:08:16.107Z,99.07
2022-09-24T02:10:49.189Z,100.00
2022-09-24T02:13:19.853Z,96.79
2022-09-24T02:15:53.124Z,96.33
2022-09-24T02:18:26.848Z,94.91
2022-09-24T02:20:56.236Z,95.37
2022-09-24T02:23:27.153Z,100.00
2022-09-24T02:25:59.713Z,100.00
2022-09-24T02:28:28.442Z,100.00
2022-09-24T02:31:03.563Z,100.00
2022-09-24T02:33:51.639Z,100.00
2022-09-24T02:36:20.528Z,100.00
2022-09-24T02:38:49.355Z,100.00
2022-09-24T02:41:18.146Z,100.00
2022-09-24T02:43:47.522Z,97.90
2022-09-24T02:46:17.515Z,95.43
2022-09-24T02:48:46.013Z,93.72
2022-09-24T02:51:14.660Z,92.85
2022-09-24T02:53:43.189Z,92.63
2022-09-24T02:56:11.728Z,92.28
2022-09-24T02:58:40.488Z,95.28
2022-09-24T03:01:09.015Z,93.28
2022-09-24T03:03:38.862Z,91.90
2022-09-24T03:06:07.841Z,94.77
2022-09-24T03:08:36.407Z,96.32
2022-09-24T03:11:05.250Z,93.80
2022-09-24T03:13:33.785Z,100.00
2022-09-24T03:16:02.566Z,100.00
2022-09-24T03:18:31.149Z,100.00
2022-09-24T03:21:03.567Z,100.00
2022-09-24T03:23:32.192Z,100.00
2022-09-24T03:26:00.775Z,99.40
2022-09-24T03:28:29.907Z,97.03
2022-09-24T03:31:00.493Z,94.98
2022-09-24T03:33:31.357Z,94.23
2022-09-24T03:36:03.785Z,93.25
2022-09-24T03:38:32.756Z,93.78
2022-09-24T03:41:01.893Z,93.01
2022-09-24T03:43:31.409Z,93.20
2022-09-24T03:46:00.159Z,92.79
2022-09-24T03:48:30.119Z,92.52
2022-09-24T03:51:04.319Z,92.81
2022-09-24T03:53:32.989Z,92.98
2022-09-24T03:56:02.843Z,92.40
2022-09-24T03:58:32.042Z,96.04
2022-09-24T04:01:00.583Z,100.00
2022-09-24T04:03:29.365Z,100.00
2022-09-24T04:05:57.863Z,100.00
2022-09-24T04:08:27.853Z,100.00
2022-09-24T04:10:56.451Z,100.00
2022-09-24T04:13:25.153Z,97.94
2022-09-24T04:15:55.056Z,95.09
2022-09-24T04:18:24.256Z,94.01
2022-09-24T04:20:52.983Z,94.99
2022-09-24T04:23:21.524Z,94.34
2022-09-24T04:25:51.362Z,95.32
2022-09-24T04:28:19.923Z,93.23
2022-09-24T04:30:48.458Z,92.90
2022-09-24T04:33:17.060Z,93.54
2022-09-24T04:35:47.613Z,95.29
2022-09-24T04:38:16.252Z,94.28
2022-09-24T04:40:45.467Z,97.48
2022-09-24T04:43:15.502Z,96.55
2022-09-24T04:45:45.820Z,100.00
2022-09-24T04:48:14.794Z,100.00
2022-09-24T04:50:46.322Z,97.46
2022-09-24T04:53:15.314Z,97.63
2022-09-24T04:55:44.560Z,99.62
2022-09-24T04:58:14.461Z,100.00
2022-09-24T05:00:43.294Z,100.00
2022-09-24T05:03:11.905Z,100.00
2022-09-24T05:05:40.479Z,100.00
2022-09-24T05:08:09.012Z,100.00
2022-09-24T05:10:37.509Z,100.00
2022-09-24T05:13:06.085Z,100.00
2022-09-24T05:15:40.880Z,100.00
2022-09-24T05:18:11.498Z,100.00
2022-09-24T05:20:40.016Z,100.00
2022-09-24T05:23:08.564Z,100.00
2022-09-24T05:25:58.197Z,100.00
2022-09-24T05:28:26.075Z,100.00
2022-09-24T05:31:00.227Z,100.00
2022-09-24T05:33:28.893Z,100.00
2022-09-24T05:35:58.605Z,100.00
2022-09-24T05:38:27.151Z,100.00
2022-09-24T05:40:55.737Z,100.00
2022-09-24T05:43:27.692Z,100.00
2022-09-24T05:45:58.645Z,100.00
2022-09-24T05:48:28.544Z,100.00
2022-09-24T05:50:57.363Z,100.00
2022-09-24T05:53:26.332Z,100.00
2022-09-24T05:55:54.885Z,99.35
2022-09-24T05:58:23.445Z,98.74
2022-09-24T06:00:51.991Z,100.00
2022-09-24T06:03:21.699Z,99.43
2022-09-24T06:05:52.833Z,100.00
2022-09-24T06:08:22.325Z,99.80
2022-09-24T06:10:51.145Z,96.94
2022-09-24T06:13:21.079Z,97.51
2022-09-24T06:15:49.664Z,96.80
2022-09-24T06:18:18.459Z,100.00
2022-09-24T06:20:47.033Z,100.00
2022-09-24T06:23:16.971Z,99.35
2022-09-24T06:25:50.000Z,100.00
2022-09-24T06:28:18.592Z,100.00
2022-09-24T06:30:47.163Z,98.10
2022-09-24T06:33:15.774Z,100.00
2022-09-24T06:35:45.631Z,100.00
2022-09-24T06:38:17.650Z,100.00
2022-09-24T06:40:48.442Z,100.00
2022-09-24T06:43:18.914Z,100.00
2022-09-24T06:45:47.497Z,100.00
2022-09-24T06:48:17.800Z,100.00
2022-09-24T06:50:47.458Z,100.00
2022-09-24T06:53:17.624Z,100.00
2022-09-24T06:55:47.043Z,100.00
2022-09-24T06:58:18.171Z,100.00
2022-09-24T07:00:54.378Z,100.00
2022-09-24T07:03:23.297Z,100.00
2022-09-24T07:05:51.837Z,100.00
2022-09-24T07:08:22.075Z,100.00
2022-09-24T07:10:52.487Z,100.00
2022-09-24T07:13:22.163Z,100.00
2022-09-24T07:15:52.231Z,100.00
2022-09-24T07:18:21.457Z,100.00
2022-09-24T07:20:54.130Z,100.00
2022-09-24T07:23:24.737Z,100.00
2022-09-24T07:25:57.696Z,100.00
2022-09-24T07:28:26.668Z,100.00
2022-09-24T07:30:59.544Z,100.00
2022-09-24T07:33:28.250Z,100.00
2022-09-24T07:35:56.814Z,100.00
2022-09-24T07:38:27.061Z,100.00
2022-09-24T07:40:59.493Z,100.00
2022-09-24T07:43:28.617Z,100.00
2022-09-24T07:45:58.155Z,100.00
2022-09-24T07:48:26.922Z,100.00
2022-09-24T07:50:55.922Z,100.00
2022-09-24T07:53:25.844Z,100.00
2022-09-24T07:55:56.334Z,100.00
2022-09-24T07:58:24.880Z,100.00
2022-09-24T08:00:53.511Z,100.00
2022-09-24T08:03:22.184Z,100.00
2022-09-24T08:05:50.807Z,100.00
2022-09-24T08:08:20.824Z,100.00
2022-09-24T08:10:50.724Z,100.00
2022-09-24T08:13:22.697Z,100.00
2022-09-24T08:15:59.512Z,100.00
2022-09-24T08:18:28.936Z,100.00
2022-09-24T08:20:57.443Z,100.00
2022-09-24T08:23:25.987Z,100.00
2022-09-24T08:25:57.116Z,100.00
2022-09-24T08:28:25.668Z,100.00
2022-09-24T08:30:57.999Z,100.00
2022-09-24T08:33:26.646Z,100.00
2022-09-24T08:35:55.247Z,100.00
2022-09-24T08:38:23.804Z,100.00
2022-09-24T08:41:03.172Z,100.00
2022-09-24T08:43:42.067Z,100.00
2022-09-24T08:46:33.665Z,100.00
2022-09-24T08:49:05.106Z,100.00
2022-09-24T08:51:40.577Z,100.00
2022-09-24T08:54:13.687Z,100.00
2022-09-24T08:56:46.843Z,100.00
2022-09-24T08:59:28.803Z,97.03
2022-09-24T09:02:14.600Z,100.00
2022-09-24T09:04:54.857Z,100.00
2022-09-24T09:07:27.645Z,100.00
2022-09-24T09:10:01.664Z,100.00
2022-09-24T09:12:38.600Z,100.00
2022-09-24T09:15:12.793Z,100.00
2022-09-24T09:17:47.567Z,100.00
2022-09-24T09:20:20.443Z,100.00
2022-09-24T09:22:51.382Z,100.00
2022-09-24T09:25:23.801Z,100.00
2022-09-24T09:27:59.569Z,100.00
2022-09-24T09:30:31.251Z,100.00
2022-09-24T09:33:21.689Z,100.00
2022-09-24T09:36:00.512Z,99.69
2022-09-24T09:38:36.880Z,100.00
2022-09-24T09:41:13.484Z,99.90
2022-09-24T09:43:44.668Z,95.48
2022-09-24T09:46:19.599Z,99.42
2022-09-24T09:48:52.301Z,100.00
2022-09-24T09:51:23.353Z,96.85
2022-09-24T09:53:59.958Z,96.76
2022-09-24T09:56:31.636Z,96.72
2022-09-24T09:59:08.403Z,96.32
2022-09-24T10:01:40.624Z,98.74
2022-09-24T10:04:39.285Z,100.00
2022-09-24T10:07:10.102Z,97.23
2022-09-24T10:09:39.650Z,96.39
2022-09-24T10:12:10.390Z,94.22
2022-09-24T10:14:40.413Z,97.78
2022-09-24T10:17:12.643Z,96.05
2022-09-24T10:19:46.141Z,100.00
2022-09-24T10:22:21.078Z,95.84
2022-09-24T10:24:50.904Z,96.11
2022-09-24T10:27:30.517Z,93.65
2022-09-24T10:30:19.871Z,89.55
2022-09-24T10:32:56.920Z,94.97
2022-09-24T10:35:29.574Z,100.00
2022-09-24T10:37:59.695Z,95.72
2022-09-24T10:40:31.282Z,91.43
2022-09-24T10:43:02.308Z,90.91
2022-09-24T10:46:15.065Z,90.33
2022-09-24T10:48:46.523Z,89.24
2022-09-24T10:51:29.846Z,88.54
2022-09-24T10:54:15.870Z,91.11
2022-09-24T10:56:49.557Z,90.83
2022-09-24T10:59:42.468Z,90.03
2022-09-24T11:02:39.839Z,90.98
2022-09-24T11:05:14.190Z,90.27
2022-09-24T11:07:57.341Z,96.58
2022-09-24T11:10:51.747Z,93.80
2022-09-24T11:13:32.424Z,95.94
2022-09-24T11:16:37.657Z,100.00
2022-09-24T11:19:17.833Z,100.00
2022-09-24T11:22:04.145Z,100.00
2022-09-24T11:24:44.743Z,100.00
2022-09-24T11:27:35.665Z,98.89
2022-09-24T11:30:11.481Z,98.92
2022-09-24T11:32:55.589Z,99.19
2022-09-24T11:35:36.079Z,100.00
2022-09-24T11:38:10.234Z,100.00
2022-09-24T11:40:53.226Z,100.00
2022-09-24T11:43:50.575Z,100.00
2022-09-24T11:46:30.582Z,100.00
2022-09-24T11:49:28.240Z,100.00
2022-09-24T11:52:05.900Z,100.00
2022-09-24T11:54:40.304Z,100.00
2022-09-24T11:57:17.160Z,100.00
2022-09-24T11:59:54.871Z,100.00
2022-09-24T12:02:28.955Z,100.00
2022-09-24T12:05:04.188Z,100.00
2022-09-24T12:07:39.314Z,100.00
2022-09-24T12:10:29.786Z,100.00
2022-09-24T12:13:07.278Z,100.00
2022-09-24T12:15:46.371Z,100.00
2022-09-24T12:18:21.241Z,100.00
2022-09-24T12:20:53.234Z,100.00
2022-09-24T12:23:28.169Z,100.00
2022-09-24T12:25:59.512Z,100.00
2022-09-24T12:28:54.404Z,100.00
2022-09-24T12:32:01.744Z,100.00
2022-09-24T12:34:42.903Z,100.00
2022-09-24T12:37:16.444Z,100.00
2022-09-24T12:39:53.901Z,100.00
2022-09-24T12:42:24.062Z,100.00
2022-09-24T12:44:55.912Z,100.00
2022-09-24T12:47:27.473Z,100.00
2022-09-24T12:49:59.241Z,100.00
2022-09-24T12:52:32.577Z,100.00
2022-09-24T12:55:04.003Z,100.00
2022-09-24T12:57:36.621Z,100.00
2022-09-24T13:00:27.564Z,100.00
2022-09-24T13:02:56.704Z,100.00
2022-09-24T13:05:30.416Z,100.00
2022-09-24T13:08:02.346Z,100.00
2022-09-24T13:10:34.550Z,100.00
2022-09-24T13:13:04.953Z,100.00
2022-09-24T13:15:36.688Z,100.00
2022-09-24T13:18:24.100Z,100.00
2022-09-24T13:21:04.528Z,100.00
2022-09-24T13:23:47.337Z,100.00
2022-09-24T13:26:30.345Z,100.00
2022-09-24T13:29:01.028Z,100.00
2022-09-24T13:31:41.909Z,100.00
2022-09-24T13:34:21.720Z,100.00
2022-09-24T13:36:57.720Z,100.00
2022-09-24T13:39:32.457Z,100.00
2022-09-24T13:42:09.476Z,100.00
2022-09-24T13:44:40.689Z,100.00
2022-09-24T13:47:16.391Z,100.00
2022-09-24T13:49:49.041Z,100.00
2022-09-24T13:52:30.521Z,100.00
2022-09-24T13:55:02.979Z,100.00
2022-09-24T13:57:43.079Z,100.00
2022-09-24T14:00:17.245Z,100.00
2022-09-24T14:02:53.475Z,100.00
2022-09-24T14:05:22.933Z,100.00
2022-09-24T14:08:02.707Z,100.00
2022-09-24T14:10:31.544Z,100.00
2022-09-24T14:13:19.258Z,100.00
2022-09-24T14:15:56.052Z,100.00
2022-09-24T14:18:26.404Z,100.00
2022-09-24T14:21:01.485Z,100.00
2022-09-24T14:23:33.722Z,100.00
2022-09-24T14:26:04.000Z,100.00
2022-09-24T14:28:35.835Z,100.00
2022-09-24T14:31:08.917Z,100.00
2022-09-24T14:33:39.811Z,100.00
2022-09-24T14:36:13.819Z,100.00
2022-09-24T14:38:53.778Z,100.00
2022-09-24T14:41:26.042Z,100.00
2022-09-24T14:43:59.793Z,100.00
2022-09-24T14:46:32.564Z,100.00
2022-09-24T14:49:15.853Z,100.00
2022-09-24T14:51:54.524Z,100.00
2022-09-24T14:54:32.051Z,100.00
2022-09-24T14:57:11.986Z,100.00
2022-09-24T14:59:42.904Z,100.00
2022-09-24T15:02:21.744Z,100.00
2022-09-24T15:04:53.235Z,100.00
2022-09-24T15:07:27.867Z,100.00
2022-09-24T15:09:58.478Z,100.00
2022-09-24T15:12:31.319Z,100.00
2022-09-24T15:15:03.171Z,100.00
2022-09-24T15:17:33.825Z,100.00
2022-09-24T15:20:03.448Z,100.00
2022-09-24T15:22:32.772Z,100.00
2022-09-24T15:25:02.530Z,100.00
2022-09-24T15:27:33.039Z,100.00
2022-09-24T15:30:05.052Z,100.00
2022-09-24T15:32:35.942Z,100.00
2022-09-24T15:35:08.664Z,100.00
2022-09-24T15:37:40.401Z,100.00
2022-09-24T15:40:16.858Z,100.00
2022-09-24T15:42:45.495Z,100.00
2022-09-24T15:45:21.234Z,100.00
2022-09-24T15:47:50.783Z,100.00
2022-09-24T15:50:20.333Z,100.00
2022-09-24T15:52:53.348Z,100.00
2022-09-24T15:55:23.454Z,100.00
2022-09-24T15:57:52.269Z,100.00
2022-09-24T16:00:24.029Z,100.00
2022-09-24T16:02:54.797Z,100.00
2022-09-24T16:05:24.054Z,100.00
2022-09-24T16:07:52.584Z,100.00
2022-09-24T16:10:21.176Z,100.00
2022-09-24T16:12:49.766Z,100.00
2022-09-24T16:15:19.006Z,100.00
2022-09-24T16:17:50.912Z,100.00
2022-09-24T16:20:19.639Z,100.00
2022-09-24T16:22:48.160Z,100.00
2022-09-24T16:25:16.865Z,100.00
2022-09-24T16:27:45.628Z,100.00
2022-09-24T16:30:14.362Z,100.00
2022-09-24T16:32:42.940Z,100.00
2022-09-24T16:35:13.419Z,100.00
2022-09-24T16:37:42.204Z,100.00
2022-09-24T16:40:12.086Z,100.00
2022-09-24T16:42:40.705Z,100.00
2022-09-24T16:45:12.514Z,100.00
2022-09-24T16:47:41.094Z,100.00
2022-09-24T16:50:10.642Z,100.00
2022-09-24T16:52:40.560Z,100.00
2022-09-24T16:55:10.184Z,100.00
2022-09-24T16:57:39.224Z,100.00
2022-09-24T17:00:09.454Z,100.00
2022-09-24T17:02:38.167Z,100.00
2022-09-24T17:05:07.888Z,100.00
2022-09-24T17:07:36.522Z,100.00
2022-09-24T17:10:15.875Z,100.00
2022-09-24T17:12:46.488Z,100.00
2022-09-24T17:15:16.326Z,100.00
2022-09-24T17:17:49.990Z,100.00
2022-09-24T17:20:20.247Z,100.00
2022-09-24T17:22:49.835Z,100.00
2022-09-24T17:25:19.873Z,100.00
2022-09-24T17:27:48.399Z,100.00
2022-09-24T17:30:17.100Z,100.00
2022-09-24T17:32:45.637Z,100.00
2022-09-24T17:35:14.884Z,100.00
2022-09-24T17:37:45.211Z,100.00
2022-09-24T17:40:19.930Z,100.00
2022-09-24T17:42:52.997Z,100.00
2022-09-24T17:45:22.622Z,100.00
2022-09-24T17:47:57.055Z,100.00
2022-09-24T17:50:25.733Z,100.00
2022-09-24T17:52:54.268Z,100.00
2022-09-24T17:55:22.832Z,100.00
2022-09-24T17:57:52.715Z,100.00
2022-09-24T18:00:21.347Z,100.00
2022-09-24T18:02:49.992Z,100.00
2022-09-24T18:05:18.743Z,100.00
2022-09-24T18:07:47.313Z,100.00
2022-09-24T18:10:17.304Z,100.00
2022-09-24T18:12:45.907Z,100.00
2022-09-24T18:15:16.024Z,100.00
2022-09-24T18:17:44.565Z,100.00
2022-09-24T18:20:13.112Z,100.00
2022-09-24T18:22:41.689Z,100.00
2022-09-24T18:25:11.455Z,100.00
2022-09-24T18:27:40.004Z,100.00
2022-09-24T18:30:11.751Z,100.00
2022-09-24T18:32:41.750Z,100.00
2022-09-24T18:35:11.047Z,100.00
2022-09-24T18:37:39.936Z,100.00
2022-09-24T18:40:10.334Z,100.00
2022-09-24T18:42:38.925Z,100.00
2022-09-24T18:45:08.454Z,100.00
2022-09-24T18:47:39.179Z,100.00
2022-09-24T18:50:10.392Z,100.00
2022-09-24T18:52:38.937Z,100.00
2022-09-24T18:55:08.806Z,100.00
2022-09-24T18:57:37.865Z,100.00
2022-09-24T19:00:28.369Z,100.00
2022-09-24T19:02:57.008Z,100.00
2022-09-24T19:05:27.165Z,100.00
2022-09-24T19:07:55.764Z,100.00
2022-09-24T19:10:24.349Z,100.00
2022-09-24T19:12:55.319Z,100.00
2022-09-24T19:15:25.141Z,100.00
2022-09-24T19:17:54.157Z,100.00
2022-09-24T19:20:22.926Z,100.00
2022-09-24T19:23:00.189Z,100.00
2022-09-24T19:25:29.242Z,100.00
2022-09-24T19:27:57.946Z,100.00
2022-09-24T19:30:27.629Z,100.00
2022-09-24T19:32:56.245Z,100.00
2022-09-24T19:35:24.803Z,100.00
2022-09-24T19:37:54.777Z,100.00
2022-09-24T19:40:23.463Z,100.00
2022-09-24T19:42:52.769Z,100.00
2022-09-24T19:45:21.345Z,100.00
2022-09-24T19:47:51.540Z,100.00
2022-09-24T19:50:20.106Z,100.00
2022-09-24T19:52:49.154Z,100.00
2022-09-24T19:55:19.064Z,100.00
2022-09-24T19:57:47.621Z,100.00
2022-09-24T20:00:16.491Z,100.00
2022-09-24T20:02:45.077Z,100.00
2022-09-24T20:05:13.667Z,100.00
2022-09-24T20:07:42.542Z,100.00
2022-09-24T20:10:11.795Z,100.00
2022-09-24T20:12:46.581Z,100.00
2022-09-24T20:15:15.204Z,100.00
2022-09-24T20:17:43.755Z,100.00
2022-09-24T20:20:12.412Z,100.00
2022-09-24T20:22:40.994Z,100.00
2022-09-24T20:25:11.648Z,100.00
2022-09-24T20:27:52.791Z,100.00
2022-09-24T20:30:23.597Z,100.00
2022-09-24T20:32:52.178Z,100.00
2022-09-24T20:35:20.940Z,100.00
2022-09-24T20:37:50.122Z,100.00
2022-09-24T20:40:18.808Z,100.00
2022-09-24T20:42:49.279Z,100.00
2022-09-24T20:45:18.096Z,100.00
2022-09-24T20:47:49.977Z,100.00
2022-09-24T20:50:19.000Z,100.00
2022-09-24T20:52:47.574Z,100.00
2022-09-24T20:55:16.419Z,100.00
2022-09-24T20:57:45.450Z,100.00
2022-09-24T21:00:16.168Z,100.00
2022-09-24T21:02:45.074Z,100.00
2022-09-24T21:05:13.736Z,100.00
2022-09-24T21:07:42.826Z,100.00
2022-09-24T21:10:13.482Z,100.00
2022-09-24T21:12:43.625Z,100.00
2022-09-24T21:15:15.540Z,100.00
2022-09-24T21:17:59.401Z,100.00
2022-09-24T21:20:33.212Z,100.00
2022-09-24T21:23:01.788Z,100.00
2022-09-24T21:25:53.399Z,100.00
2022-09-24T21:28:19.723Z,100.00
2022-09-24T21:31:03.340Z,100.00
2022-09-24T21:33:32.503Z,100.00
2022-09-24T21:36:02.051Z,100.00
2022-09-24T21:38:31.064Z,100.00
2022-09-24T21:41:01.403Z,100.00
2022-09-24T21:43:34.582Z,100.00
2022-09-24T21:46:07.032Z,100.00
2022-09-24T21:48:36.246Z,100.00
2022-09-24T21:51:07.194Z,100.00
2022-09-24T21:53:36.594Z,100.00
2022-09-24T21:56:07.105Z,100.00
2022-09-24T21:58:36.929Z,100.00
2022-09-24T22:01:16.475Z,100.00
2022-09-24T22:03:46.798Z,100.00
2022-09-24T22:06:16.141Z,100.00
2022-09-24T22:08:47.138Z,100.00
2022-09-24T22:11:17.953Z,100.00
2022-09-24T22:13:46.891Z,100.00
2022-09-24T22:16:17.136Z,100.00
2022-09-24T22:18:45.662Z,100.00
2022-09-24T22:21:16.848Z,100.00
2022-09-24T22:23:45.480Z,100.00
2022-09-24T22:26:14.923Z,100.00
2022-09-24T22:28:43.772Z,100.00
2022-09-24T22:31:15.547Z,100.00
2022-09-24T22:34:03.299Z,100.00
2022-09-24T22:36:33.274Z,100.00
2022-09-24T22:39:03.328Z,100.00
2022-09-24T22:41:32.709Z,100.00
2022-09-24T22:44:01.262Z,100.00
2022-09-24T22:46:30.528Z,100.00
2022-09-24T22:49:01.503Z,100.00
2022-09-24T22:51:31.047Z,100.00
2022-09-24T22:54:00.325Z,100.00
2022-09-24T22:56:30.088Z,100.00
2022-09-24T22:59:00.341Z,100.00
2022-09-24T23:01:31.411Z,100.00
2022-09-24T23:04:02.562Z,100.00
2022-09-24T23:06:32.897Z,100.00
2022-09-24T23:09:02.147Z,100.00
2022-09-24T23:11:32.765Z,100.00
2022-09-24T23:14:03.403Z,100.00
2022-09-24T23:16:35.472Z,100.00
2022-09-24T23:19:07.597Z,100.00
2022-09-24T23:21:37.326Z,100.00
2022-09-24T23:24:08.073Z,100.00
2022-09-24T23:26:36.850Z,100.00
2022-09-24T23:29:06.821Z,100.00
2022-09-24T23:31:37.071Z,100.00
2022-09-24T23:34:07.976Z,100.00
2022-09-24T23:36:37.412Z,100.00
2022-09-24T23:39:06.537Z,100.00
2022-09-24T23:41:35.202Z,100.00
2022-09-24T23:44:04.340Z,100.00
2022-09-24T23:46:34.209Z,100.00
2022-09-24T23:49:02.985Z,100.00
2022-09-24T23:51:33.051Z,100.00
2022-09-24T23:54:01.696Z,100.00
2022-09-24T23:56:30.279Z,100.00
2022-09-24T23:58:58.844Z,100.00
